Time;durP1;ratioP1;P1;durP2;ratioP2;P2;SDS_P1;SDS_P2;PMS_P1;PMS_P2;Temp;Humidity;BMP_temperature;BMP_pressure;BME280_temperature;BME280_humidity;BME280_pressure;Samples;Min_cycle;Max_cycle;Signal;HPM_P1;HPM_P2
2022/05/23 00:02:00;;;;;;;3.03;1.33;;;;;;;;;;5072725;28;20204;-57
2022/05/23 00:04:27;;;;;;;1.53;1.40;;;;;;;;;;5072864;28;20198;-60
2022/05/23 00:06:53;;;;;;;1.77;1.67;;;;;;;;;;5072715;28;20199;-58
2022/05/23 00:09:21;;;;;;;2.17;1.60;;;;;;;;;;5072962;28;20219;-58
2022/05/23 00:11:47;;;;;;;4.80;1.77;;;;;;;;;;5072710;28;20260;-56
2022/05/23 00:14:13;;;;;;;2.17;1.50;;;;;;;;;;5072741;28;20619;-57
2022/05/23 00:16:43;;;;;;;2.80;1.67;;;;;;;;;;5072496;28;20658;-58
2022/05/23 00:19:10;;;;;;;4.63;1.80;;;;;;;;;;5071896;28;20222;-57
2022/05/23 00:21:36;;;;;;;1.80;1.50;;;;;;;;;;5072486;28;20199;-57
2022/05/23 00:24:02;;;;;;;2.10;1.60;;;;;;;;;;5072317;28;20638;-57
2022/05/23 00:26:29;;;;;;;2.73;1.80;;;;;;;;;;5072402;28;20203;-58
2022/05/23 00:28:55;;;;;;;3.80;2.03;;;;;;;;;;5072466;28;20226;-58
2022/05/23 00:31:21;;;;;;;3.67;1.60;;;;;;;;;;5072390;28;20666;-57
2022/05/23 00:36:34;;;;;;;2.60;1.97;;;;;;;;;;5072390;28;20603;-58
2022/05/23 00:39:00;;;;;;;2.17;1.60;;;;;;;;;;5071796;28;20293;-58
2022/05/23 00:44:17;;;;;;;2.73;1.73;;;;;;;;;;5072262;28;20310;-56
2022/05/23 00:46:51;;;;;;;2.57;1.70;;;;;;;;;;5072129;28;20291;-57
2022/05/23 00:49:19;;;;;;;4.97;1.60;;;;;;;;;;5072402;28;20215;-58
2022/05/23 00:51:45;;;;;;;2.93;1.80;;;;;;;;;;5072216;28;20708;-57
2022/05/23 00:54:11;;;;;;;3.77;1.60;;;;;;;;;;5072306;28;20276;-57
2022/05/23 00:56:43;;;;;;;3.25;1.90;;;;;;;;;;5070964;28;20396;-58
2022/05/23 00:59:09;;;;;;;1.87;1.40;;;;;;;;;;5070583;28;20261;-58
2022/05/23 01:01:36;;;;;;;3.93;1.80;;;;;;;;;;5071854;28;20207;-57
2022/05/23 01:04:02;;;;;;;2.90;1.60;;;;;;;;;;5072220;28;20195;-57
2022/05/23 01:06:28;;;;;;;4.03;1.75;;;;;;;;;;5070872;28;20748;-57
2022/05/23 01:08:55;;;;;;;2.50;1.60;;;;;;;;;;5070605;28;20873;-57
2022/05/23 01:11:21;;;;;;;4.10;1.60;;;;;;;;;;5071961;28;20210;-57
2022/05/23 01:13:49;;;;;;;2.33;1.53;;;;;;;;;;5071835;28;20222;-57
2022/05/23 01:16:15;;;;;;;4.53;1.90;;;;;;;;;;5072151;28;20199;-58
2022/05/23 01:18:41;;;;;;;3.33;1.77;;;;;;;;;;5072006;28;20206;-57
2022/05/23 01:21:10;;;;;;;4.97;1.73;;;;;;;;;;5071962;28;20203;-57
2022/05/23 01:23:38;;;;;;;2.53;1.60;;;;;;;;;;5072029;28;20195;-58
2022/05/23 01:26:06;;;;;;;1.90;1.70;;;;;;;;;;5072049;28;20214;-58
2022/05/23 01:28:33;;;;;;;2.30;1.60;;;;;;;;;;5071960;28;20265;-58
2022/05/23 01:30:59;;;;;;;1.93;1.80;;;;;;;;;;5075495;28;20618;-58
2022/05/23 01:33:25;;;;;;;6.27;1.70;;;;;;;;;;5075810;28;20203;-58
2022/05/23 01:35:51;;;;;;;3.20;1.60;;;;;;;;;;5075476;28;20202;-58
2022/05/23 01:38:17;;;;;;;3.63;2.13;;;;;;;;;;5075673;28;20196;-57
2022/05/23 01:40:43;;;;;;;2.97;1.70;;;;;;;;;;5075516;28;20285;-58
2022/05/23 01:43:11;;;;;;;3.67;1.80;;;;;;;;;;5075780;28;20558;-58
2022/05/23 01:45:38;;;;;;;4.63;2.00;;;;;;;;;;5075590;28;20303;-58
2022/05/23 01:48:05;;;;;;;2.43;2.10;;;;;;;;;;5075293;28;20619;-58
2022/05/23 01:50:31;;;;;;;4.93;2.20;;;;;;;;;;5075542;28;20298;-58
2022/05/23 01:52:58;;;;;;;2.93;2.00;;;;;;;;;;5075436;28;20219;-57
2022/05/23 01:55:24;;;;;;;4.70;2.17;;;;;;;;;;5075196;28;20304;-57
2022/05/23 01:57:50;;;;;;;4.50;1.67;;;;;;;;;;5075450;28;20195;-57
2022/05/23 02:03:03;;;;;;;2.77;2.07;;;;;;;;;;5075449;28;20676;-57
2022/05/23 02:05:30;;;;;;;2.97;2.10;;;;;;;;;;5075452;28;20195;-57
2022/05/23 02:07:56;;;;;;;3.20;2.00;;;;;;;;;;5075293;28;20253;-57
2022/05/23 02:10:23;;;;;;;5.17;2.57;;;;;;;;;;5075323;28;20196;-57
2022/05/23 02:12:49;;;;;;;4.37;2.20;;;;;;;;;;5074831;28;20225;-57
2022/05/23 02:15:15;;;;;;;8.20;2.33;;;;;;;;;;5074915;28;20231;-57
2022/05/23 02:17:42;;;;;;;3.97;2.00;;;;;;;;;;5075130;28;20201;-58
2022/05/23 02:20:09;;;;;;;3.77;2.37;;;;;;;;;;5075117;28;20298;-56
2022/05/23 02:22:36;;;;;;;2.73;2.00;;;;;;;;;;5074464;28;20200;-57
2022/05/23 02:25:02;;;;;;;2.50;1.97;;;;;;;;;;5075108;28;20214;-57
2022/05/23 02:27:30;;;;;;;4.83;2.20;;;;;;;;;;5075119;28;20227;-57
2022/05/23 02:29:56;;;;;;;4.27;2.30;;;;;;;;;;5074855;28;20282;-58
2022/05/23 02:32:22;;;;;;;3.37;2.50;;;;;;;;;;5074838;28;20278;-57
2022/05/23 02:34:50;;;;;;;4.93;2.50;;;;;;;;;;5074620;28;20313;-57
2022/05/23 02:37:15;;;;;;;4.60;2.37;;;;;;;;;;5074810;28;20219;-56
2022/05/23 02:39:42;;;;;;;4.47;2.63;;;;;;;;;;5074254;28;20243;-57
2022/05/23 02:42:09;;;;;;;3.50;2.53;;;;;;;;;;5073167;28;20192;-58
2022/05/23 02:44:34;;;;;;;6.87;2.40;;;;;;;;;;5074498;28;20196;-56
2022/05/23 02:47:00;;;;;;;3.47;2.20;;;;;;;;;;5074390;28;20199;-56
2022/05/23 02:49:26;;;;;;;4.20;2.50;;;;;;;;;;5074418;28;20196;-56
2022/05/23 02:51:54;;;;;;;3.83;2.43;;;;;;;;;;5074334;28;20742;-56
2022/05/23 02:54:20;;;;;;;4.20;2.60;;;;;;;;;;5074226;28;20224;-56
2022/05/23 02:56:46;;;;;;;3.50;2.50;;;;;;;;;;5074170;28;20199;-56
2022/05/23 02:59:12;;;;;;;7.20;3.23;;;;;;;;;;5074261;28;20265;-56
2022/05/23 03:03:01;;;;;;;4.97;2.67;;;;;;;;;;5074048;28;20212;-56
2022/05/23 03:04:24;;;;;;;6.17;3.10;;;;;;;;;;5074116;28;20199;-56
2022/05/23 03:06:50;;;;;;;4.97;2.63;;;;;;;;;;5073926;28;20202;-57
2022/05/23 03:09:18;;;;;;;4.87;2.60;;;;;;;;;;5074055;28;20651;-57
2022/05/23 03:11:44;;;;;;;4.83;3.13;;;;;;;;;;5073916;28;20672;-57
2022/05/23 03:14:10;;;;;;;5.67;3.10;;;;;;;;;;5073771;28;20231;-57
2022/05/23 03:16:36;;;;;;;5.00;2.83;;;;;;;;;;5073647;28;20207;-57
2022/05/23 03:19:02;;;;;;;6.10;3.17;;;;;;;;;;5073575;28;20282;-57
2022/05/23 03:26:59;;;;;;;6.27;3.40;;;;;;;;;;5073504;28;20194;-58
2022/05/23 03:29:25;;;;;;;7.83;3.30;;;;;;;;;;5073572;28;20215;-58
2022/05/23 03:31:51;;;;;;;5.83;3.40;;;;;;;;;;5073264;28;20264;-58
2022/05/23 03:34:17;;;;;;;5.97;2.80;;;;;;;;;;5073481;28;20284;-58
2022/05/23 03:36:43;;;;;;;4.13;2.73;;;;;;;;;;5073341;28;20207;-57
2022/05/23 03:39:09;;;;;;;7.22;3.45;;;;;;;;;;5071910;28;20465;-58
2022/05/23 03:41:35;;;;;;;6.63;3.50;;;;;;;;;;5072045;28;20889;-58
2022/05/23 03:44:02;;;;;;;7.50;2.97;;;;;;;;;;5073165;28;20195;-58
2022/05/23 03:46:28;;;;;;;4.70;3.43;;;;;;;;;;5073245;28;20207;-58
2022/05/23 03:48:55;;;;;;;6.87;3.47;;;;;;;;;;5073130;28;20210;-58
2022/05/23 03:51:21;;;;;;;4.83;3.27;;;;;;;;;;5073233;28;20204;-58
2022/05/23 03:53:47;;;;;;;4.83;3.03;;;;;;;;;;5072856;28;20326;-58
2022/05/23 03:56:13;;;;;;;6.67;3.13;;;;;;;;;;5073194;28;20290;-58
2022/05/23 03:58:39;;;;;;;4.57;3.10;;;;;;;;;;5073068;28;20208;-58
2022/05/23 04:01:08;;;;;;;5.80;3.60;;;;;;;;;;5072862;28;20207;-58
2022/05/23 04:03:35;;;;;;;5.10;3.30;;;;;;;;;;5072958;28;20203;-58
2022/05/23 04:06:01;;;;;;;3.37;2.70;;;;;;;;;;5072761;28;20270;-58
2022/05/23 04:08:27;;;;;;;4.10;3.10;;;;;;;;;;5072817;28;20291;-57
2022/05/23 04:10:53;;;;;;;4.17;2.80;;;;;;;;;;5072541;28;20203;-58
2022/05/23 04:13:20;;;;;;;3.27;2.97;;;;;;;;;;5072776;28;20207;-57
2022/05/23 04:15:46;;;;;;;5.03;2.90;;;;;;;;;;5072618;28;20318;-57
2022/05/23 04:18:13;;;;;;;3.93;3.07;;;;;;;;;;5072509;28;20196;-57
2022/05/23 04:20:39;;;;;;;4.57;3.10;;;;;;;;;;5072496;28;20199;-56
2022/05/23 04:23:08;;;;;;;8.77;3.80;;;;;;;;;;5072416;28;20571;-57
2022/05/23 04:25:35;;;;;;;7.53;3.10;;;;;;;;;;5072399;28;20230;-57
2022/05/23 04:28:01;;;;;;;4.73;2.67;;;;;;;;;;5072149;28;20203;-57
2022/05/23 04:30:27;;;;;;;5.13;2.90;;;;;;;;;;5072509;28;20205;-57
2022/05/23 04:35:39;;;;;;;4.93;3.10;;;;;;;;;;5070964;28;20754;-57
2022/05/23 04:38:05;;;;;;;4.43;2.72;;;;;;;;;;5070970;28;20490;-57
2022/05/23 04:40:31;;;;;;;4.57;2.70;;;;;;;;;;5070798;28;20499;-57
2022/05/23 04:42:57;;;;;;;4.27;2.70;;;;;;;;;;5072129;28;20210;-57
2022/05/23 04:45:23;;;;;;;4.73;2.70;;;;;;;;;;5072101;28;20234;-56
2022/05/23 04:50:35;;;;;;;4.33;2.30;;;;;;;;;;5071623;28;20198;-57
2022/05/23 04:53:02;;;;;;;4.83;2.50;;;;;;;;;;5071966;28;20622;-57
2022/05/23 04:55:29;;;;;;;5.23;2.80;;;;;;;;;;5072242;28;20640;-58
2022/05/23 04:57:58;;;;;;;5.40;2.70;;;;;;;;;;5070929;28;20400;-58
2022/05/23 05:00:24;;;;;;;4.68;2.65;;;;;;;;;;5070908;28;20458;-57
2022/05/23 05:02:51;;;;;;;4.77;2.73;;;;;;;;;;5071989;28;20653;-57
2022/05/23 05:05:18;;;;;;;7.27;2.90;;;;;;;;;;5071484;28;20195;-56
2022/05/23 05:07:44;;;;;;;5.10;2.33;;;;;;;;;;5071710;28;20528;-57
2022/05/23 05:10:11;;;;;;;4.47;2.50;;;;;;;;;;5071725;28;20194;-58
2022/05/23 05:12:37;;;;;;;5.03;2.37;;;;;;;;;;5071989;28;20196;-56
2022/05/23 05:15:03;;;;;;;3.97;2.37;;;;;;;;;;5071628;28;20234;-57
2022/05/23 05:17:29;;;;;;;4.83;2.40;;;;;;;;;;5071396;28;20290;-58
2022/05/23 05:19:55;;;;;;;5.77;2.77;;;;;;;;;;5071216;28;20290;-57
2022/05/23 05:22:22;;;;;;;3.20;2.47;;;;;;;;;;5071522;28;20201;-53
2022/05/23 05:24:48;;;;;;;3.13;2.40;;;;;;;;;;5071271;28;20208;-54
2022/05/23 05:27:15;;;;;;;3.37;2.67;;;;;;;;;;5069834;28;20713;-55
2022/05/23 05:29:41;;;;;;;3.40;2.20;;;;;;;;;;5069595;28;20195;-54
2022/05/23 05:32:09;;;;;;;4.17;2.43;;;;;;;;;;5071024;28;20202;-54
2022/05/23 05:34:37;;;;;;;6.37;2.60;;;;;;;;;;5067626;28;20281;-55
2022/05/23 05:37:06;;;;;;;3.27;2.40;;;;;;;;;;5070849;28;20207;-55
2022/05/23 05:39:33;;;;;;;5.27;2.63;;;;;;;;;;5070971;28;20300;-53
2022/05/23 05:42:01;;;;;;;3.67;2.67;;;;;;;;;;5071097;28;20192;-52
2022/05/23 05:44:30;;;;;;;3.03;2.57;;;;;;;;;;5071174;28;20215;-53
2022/05/23 05:46:59;;;;;;;5.43;2.73;;;;;;;;;;5070849;28;20236;-53
2022/05/23 05:49:26;;;;;;;4.03;2.50;;;;;;;;;;5070838;28;20674;-53
2022/05/23 05:51:53;;;;;;;5.80;2.90;;;;;;;;;;5070904;28;20203;-53
2022/05/23 05:54:21;;;;;;;5.33;2.70;;;;;;;;;;5071017;28;20223;-55
2022/05/23 05:56:48;;;;;;;5.43;2.47;;;;;;;;;;5070850;28;20204;-53
2022/05/23 05:59:14;;;;;;;4.27;2.60;;;;;;;;;;5070971;28;20183;-53
2022/05/23 06:01:41;;;;;;;3.60;2.37;;;;;;;;;;5070661;28;20290;-53
2022/05/23 06:04:08;;;;;;;5.90;2.87;;;;;;;;;;5071221;28;20206;-53
2022/05/23 06:12:03;;;;;;;5.63;2.60;;;;;;;;;;5070954;28;20198;-54
2022/05/23 06:14:29;;;;;;;6.90;2.73;;;;;;;;;;5070658;28;20586;-54
2022/05/23 06:16:57;;;;;;;7.03;2.67;;;;;;;;;;5072650;28;20223;-56
2022/05/23 06:19:23;;;;;;;6.80;2.37;;;;;;;;;;5074503;28;20677;-57
2022/05/23 06:21:49;;;;;;;5.73;2.43;;;;;;;;;;5074408;28;20196;-55
2022/05/23 06:24:15;;;;;;;5.50;2.43;;;;;;;;;;5074598;28;20216;-55
2022/05/23 06:26:41;;;;;;;3.60;2.60;;;;;;;;;;5074486;28;20378;-54
2022/05/23 06:29:07;;;;;;;3.43;2.30;;;;;;;;;;5074247;28;20233;-55
2022/05/23 06:31:33;;;;;;;7.73;2.53;;;;;;;;;;5074415;28;20284;-54
2022/05/23 06:34:01;;;;;;;3.80;2.40;;;;;;;;;;5073765;28;20613;-54
2022/05/23 06:36:27;;;;;;;3.37;2.00;;;;;;;;;;5074378;28;20211;-54
2022/05/23 06:38:53;;;;;;;4.35;2.60;;;;;;;;;;5070599;28;20419;-55
2022/05/23 06:41:19;;;;;;;5.73;2.70;;;;;;;;;;5074141;28;20233;-55
2022/05/23 06:43:45;;;;;;;4.13;2.40;;;;;;;;;;5074478;28;20229;-55
2022/05/23 06:46:12;;;;;;;4.27;2.20;;;;;;;;;;5073977;28;20214;-55
2022/05/23 06:48:38;;;;;;;6.30;2.70;;;;;;;;;;5074002;28;20223;-53
2022/05/23 06:51:06;;;;;;;6.97;2.40;;;;;;;;;;5074053;28;20203;-53
2022/05/23 06:53:32;;;;;;;4.00;2.50;;;;;;;;;;5074067;28;20230;-53
2022/05/23 06:55:59;;;;;;;4.27;2.03;;;;;;;;;;5073927;28;20227;-52
2022/05/23 06:58:25;;;;;;;3.97;1.97;;;;;;;;;;5073751;28;20617;-52
2022/05/23 07:00:52;;;;;;;5.63;2.53;;;;;;;;;;5073727;28;20200;-53
2022/05/23 07:03:18;;;;;;;6.60;2.40;;;;;;;;;;5073458;28;20235;-52
2022/05/23 07:14:00;;;;;;;5.43;2.60;;;;;;;;;;5073384;28;20226;-53
2022/05/23 07:16:28;;;;;;;4.93;2.20;;;;;;;;;;5073321;28;20273;-53
2022/05/23 07:18:54;;;;;;;6.53;2.23;;;;;;;;;;5072877;28;20200;-55
2022/05/23 07:21:20;;;;;;;3.43;2.37;;;;;;;;;;5073362;28;20187;-55
2022/05/23 07:23:47;;;;;;;7.30;3.07;;;;;;;;;;5073216;28;20635;-54
2022/05/23 07:26:17;;;;;;;5.47;2.40;;;;;;;;;;5073078;28;20220;-55
2022/05/23 07:28:44;;;;;;;7.73;2.60;;;;;;;;;;5072613;28;20195;-55
2022/05/23 07:31:11;;;;;;;8.00;2.57;;;;;;;;;;5073132;28;20204;-55
2022/05/23 07:33:39;;;;;;;3.77;2.10;;;;;;;;;;5073005;28;20290;-53
2022/05/23 07:36:06;;;;;;;5.80;2.70;;;;;;;;;;5072818;28;20235;-53
2022/05/23 07:38:32;;;;;;;5.53;2.30;;;;;;;;;;5072843;28;20294;-53
2022/05/23 07:41:00;;;;;;;4.10;2.47;;;;;;;;;;5072759;28;20282;-53
2022/05/23 07:43:26;;;;;;;7.87;2.60;;;;;;;;;;5073058;28;20283;-54
2022/05/23 07:45:52;;;;;;;6.87;2.80;;;;;;;;;;5072811;28;20678;-54
2022/05/23 07:48:19;;;;;;;4.80;2.47;;;;;;;;;;5073033;28;20269;-54
2022/05/23 07:50:46;;;;;;;10.47;2.40;;;;;;;;;;5073037;28;20681;-54
2022/05/23 08:01:28;;;;;;;4.37;2.50;;;;;;;;;;5072802;28;20214;-53
2022/05/23 08:03:55;;;;;;;8.07;2.60;;;;;;;;;;5072553;28;20588;-53
2022/05/23 08:06:21;;;;;;;4.57;2.40;;;;;;;;;;5072562;28;20201;-53
2022/05/23 08:08:47;;;;;;;4.43;2.17;;;;;;;;;;5072465;28;20200;-53
2022/05/23 08:11:13;;;;;;;5.60;2.83;;;;;;;;;;5072518;28;20219;-53
2022/05/23 08:13:41;;;;;;;5.37;2.90;;;;;;;;;;5072419;28;20223;-53
2022/05/23 08:16:09;;;;;;;4.63;2.73;;;;;;;;;;5072297;28;20334;-54
2022/05/23 08:18:35;;;;;;;5.20;2.83;;;;;;;;;;5072557;28;20287;-54
2022/05/23 08:21:01;;;;;;;4.63;2.47;;;;;;;;;;5072252;28;20606;-53
2022/05/23 08:23:29;;;;;;;3.03;2.00;;;;;;;;;;5072644;28;20411;-54
2022/05/23 08:25:56;;;;;;;3.07;2.40;;;;;;;;;;5072498;28;20208;-54
2022/05/23 08:28:22;;;;;;;4.37;2.60;;;;;;;;;;5072307;28;20254;-54
2022/05/23 08:30:48;;;;;;;5.18;2.58;;;;;;;;;;5071023;28;20403;-53
2022/05/23 08:33:15;;;;;;;5.40;2.43;;;;;;;;;;5071161;28;20896;-53
2022/05/23 08:35:41;;;;;;;5.18;2.67;;;;;;;;;;5070733;28;20458;-53
2022/05/23 08:38:07;;;;;;;3.57;2.47;;;;;;;;;;5072149;28;20291;-53
2022/05/23 08:40:37;;;;;;;3.50;2.20;;;;;;;;;;5071440;28;20240;-53
2022/05/23 08:43:05;;;;;;;5.40;2.50;;;;;;;;;;5071974;28;20207;-53
2022/05/23 08:45:34;;;;;;;4.87;2.53;;;;;;;;;;5071868;28;20190;-53
2022/05/23 08:48:12;;;;;;;5.00;2.57;;;;;;;;;;5071858;28;20254;-53
2022/05/23 08:50:47;;;;;;;7.43;2.53;;;;;;;;;;5071875;28;20204;-53
2022/05/23 08:53:16;;;;;;;6.13;2.87;;;;;;;;;;5071898;28;20670;-53
2022/05/23 08:55:43;;;;;;;4.77;2.27;;;;;;;;;;5071768;28;20260;-53
2022/05/23 08:58:11;;;;;;;6.77;2.80;;;;;;;;;;5071436;28;20201;-53
2022/05/23 09:00:39;;;;;;;4.57;2.83;;;;;;;;;;5069424;28;20221;-55
2022/05/23 09:03:08;;;;;;;8.13;2.40;;;;;;;;;;5065743;28;20326;-55
2022/05/23 09:05:35;;;;;;;4.40;2.43;;;;;;;;;;5071738;28;20228;-54
2022/05/23 09:08:05;;;;;;;4.47;2.30;;;;;;;;;;5071631;28;20193;-55
2022/05/23 09:10:33;;;;;;;5.17;2.53;;;;;;;;;;5071611;28;20205;-55
2022/05/23 09:12:59;;;;;;;4.93;2.20;;;;;;;;;;5068147;28;20207;-53
2022/05/23 09:15:25;;;;;;;7.33;2.53;;;;;;;;;;5071747;28;20306;-55
2022/05/23 09:17:53;;;;;;;3.50;2.40;;;;;;;;;;5071431;28;20197;-55
2022/05/23 09:20:23;;;;;;;3.83;2.70;;;;;;;;;;5069444;28;20222;-56
2022/05/23 09:22:51;;;;;;;4.80;2.77;;;;;;;;;;5071336;28;20200;-55
2022/05/23 09:25:19;;;;;;;7.93;2.87;;;;;;;;;;5071442;28;20585;-55
2022/05/23 09:27:47;;;;;;;3.80;2.70;;;;;;;;;;5071326;28;20213;-54
2022/05/23 09:30:14;;;;;;;9.57;3.10;;;;;;;;;;5070997;28;20274;-54
2022/05/23 09:32:43;;;;;;;5.13;2.67;;;;;;;;;;5071575;28;20200;-55
2022/05/23 09:35:13;;;;;;;7.03;2.60;;;;;;;;;;5071659;28;20256;-61
2022/05/23 09:37:42;;;;;;;6.37;2.80;;;;;;;;;;5071609;28;20251;-54
2022/05/23 09:40:09;;;;;;;4.10;2.60;;;;;;;;;;5071070;28;20301;-54
2022/05/23 09:48:14;;;;;;;5.07;2.80;;;;;;;;;;5071555;28;20198;-59
2022/05/23 09:50:42;;;;;;;4.70;2.60;;;;;;;;;;5070577;28;20293;-57
2022/05/23 09:53:15;;;;;;;5.93;2.53;;;;;;;;;;5074620;28;20203;-59
2022/05/23 09:55:41;;;;;;;3.63;2.17;;;;;;;;;;5074757;28;20231;-57
2022/05/23 09:58:11;;;;;;;6.63;2.50;;;;;;;;;;5074622;28;20195;-58
2022/05/23 10:00:38;;;;;;;3.67;2.37;;;;;;;;;;5074610;28;20199;-58
2022/05/23 10:03:06;;;;;;;10.90;2.60;;;;;;;;;;5074414;28;20203;-58
2022/05/23 10:05:34;;;;;;;3.80;2.57;;;;;;;;;;5074551;28;20646;-60
2022/05/23 10:08:02;;;;;;;3.53;2.20;;;;;;;;;;5074812;28;20199;-58
2022/05/23 10:10:29;;;;;;;7.33;2.60;;;;;;;;;;5074795;28;20572;-58
2022/05/23 10:15:53;;;;;;;4.33;2.30;;;;;;;;;;5088922;28;20560;-58
2022/05/23 10:18:20;;;;;;;5.33;2.17;;;;;;;;;;5088920;28;20202;-59
2022/05/23 10:20:46;;;;;;;3.43;2.40;;;;;;;;;;5089141;28;20199;-58
2022/05/23 10:23:14;;;;;;;3.43;2.40;;;;;;;;;;5089269;28;20211;-58
2022/05/23 10:25:42;;;;;;;4.93;2.10;;;;;;;;;;5088962;28;20266;-58
2022/05/23 10:28:09;;;;;;;6.70;2.37;;;;;;;;;;5088895;28;20280;-58
2022/05/23 10:30:38;;;;;;;4.83;2.47;;;;;;;;;;5088838;28;20197;-58
2022/05/23 10:33:08;;;;;;;4.43;2.23;;;;;;;;;;5088584;28;20571;-59
2022/05/23 10:35:37;;;;;;;4.47;2.57;;;;;;;;;;5088753;28;20230;-58
2022/05/23 10:43:40;;;;;;;4.57;2.20;;;;;;;;;;5088723;28;20193;-59
2022/05/23 10:46:07;;;;;;;6.53;2.83;;;;;;;;;;5088409;28;20205;-58
2022/05/23 10:48:39;;;;;;;6.53;3.00;;;;;;;;;;5088392;28;20198;-58
2022/05/23 10:51:10;;;;;;;5.77;2.60;;;;;;;;;;5088386;28;20201;-58
2022/05/23 10:53:43;;;;;;;5.63;2.50;;;;;;;;;;5088398;28;20583;-58
2022/05/23 10:56:15;;;;;;;3.57;2.60;;;;;;;;;;5088338;28;20202;-58
2022/05/23 10:58:43;;;;;;;3.93;2.37;;;;;;;;;;5088522;28;20197;-58
2022/05/23 11:01:18;;;;;;;5.47;2.50;;;;;;;;;;5088396;28;20303;-58
2022/05/23 11:03:48;;;;;;;6.13;2.60;;;;;;;;;;5088158;28;20553;-58
2022/05/23 11:06:18;;;;;;;4.83;2.40;;;;;;;;;;5088194;28;20201;-58
2022/05/23 11:08:51;;;;;;;6.33;2.43;;;;;;;;;;5088235;28;20258;-58
2022/05/23 11:11:20;;;;;;;11.33;2.50;;;;;;;;;;5088108;28;20202;-59
2022/05/23 11:13:53;;;;;;;6.27;2.53;;;;;;;;;;5087758;28;20265;-58
2022/05/23 11:16:22;;;;;;;7.53;2.53;;;;;;;;;;5088002;28;20210;-58
2022/05/23 11:18:56;;;;;;;5.13;2.40;;;;;;;;;;5087877;28;20279;-58
2022/05/23 11:21:26;;;;;;;15.20;2.90;;;;;;;;;;5087810;28;20205;-57
2022/05/23 11:23:53;;;;;;;6.57;2.63;;;;;;;;;;5087855;28;20187;-58
2022/05/23 11:26:22;;;;;;;4.10;2.43;;;;;;;;;;5078984;28;20256;-58
2022/05/23 11:34:25;;;;;;;6.30;2.20;;;;;;;;;;5074068;28;20474;-60
2022/05/23 11:39:43;;;;;;;4.83;2.30;;;;;;;;;;5074196;28;20274;-58
2022/05/23 11:42:14;;;;;;;4.33;2.47;;;;;;;;;;5074010;28;20195;-59
2022/05/23 11:44:55;;;;;;;4.07;2.30;;;;;;;;;;5074075;28;20290;-58
2022/05/23 11:47:25;;;;;;;5.07;2.13;;;;;;;;;;5061030;28;20204;-60
2022/05/23 11:50:02;;;;;;;3.27;2.00;;;;;;;;;;5074028;28;20253;-59
2022/05/23 11:52:32;;;;;;;3.77;2.27;;;;;;;;;;5074036;28;20588;-59
2022/05/23 11:54:58;;;;;;;4.43;2.20;;;;;;;;;;5073858;28;20599;-58
2022/05/23 11:57:37;;;;;;;4.37;2.37;;;;;;;;;;5073868;28;20233;-58
2022/05/23 12:00:21;;;;;;;6.13;2.97;;;;;;;;;;5073702;28;20200;-60
2022/05/23 12:03:02;;;;;;;5.20;2.40;;;;;;;;;;5073810;28;20199;-59
2022/05/23 12:05:31;;;;;;;6.90;2.90;;;;;;;;;;5073837;28;20203;-58
2022/05/23 12:08:02;;;;;;;4.63;2.33;;;;;;;;;;5073517;28;20203;-58
2022/05/23 12:10:48;;;;;;;4.40;2.53;;;;;;;;;;5073915;28;20207;-58
2022/05/23 12:13:28;;;;;;;4.67;2.30;;;;;;;;;;5073618;28;20195;-58
2022/05/23 12:15:54;;;;;;;4.83;2.37;;;;;;;;;;5073369;28;20225;-58
2022/05/23 12:18:33;;;;;;;5.30;2.53;;;;;;;;;;5073174;28;20628;-58
2022/05/23 12:21:02;;;;;;;5.80;2.60;;;;;;;;;;5073592;28;20199;-58
2022/05/23 12:23:32;;;;;;;5.43;2.13;;;;;;;;;;5073405;28;20199;-58
2022/05/23 12:26:19;;;;;;;2.87;1.80;;;;;;;;;;5073465;28;20277;-59
2022/05/23 12:28:46;;;;;;;4.90;1.93;;;;;;;;;;5073600;28;20279;-58
2022/05/23 12:31:13;;;;;;;4.70;2.20;;;;;;;;;;5073241;28;20195;-59
2022/05/23 12:33:51;;;;;;;4.30;1.90;;;;;;;;;;5073293;28;20658;-59
2022/05/23 12:36:20;;;;;;;6.07;1.80;;;;;;;;;;5073639;28;20225;-59
2022/05/23 12:38:54;;;;;;;3.70;1.70;;;;;;;;;;5072244;28;20208;-60
2022/05/23 12:41:31;;;;;;;4.90;2.20;;;;;;;;;;5073157;28;20192;-59
2022/05/23 12:44:09;;;;;;;5.67;2.10;;;;;;;;;;5073210;28;20192;-60
2022/05/23 12:46:39;;;;;;;6.60;2.40;;;;;;;;;;5073301;28;20196;-60
2022/05/23 12:49:21;;;;;;;3.80;1.90;;;;;;;;;;5073171;28;20644;-59
2022/05/23 12:51:51;;;;;;;6.67;2.03;;;;;;;;;;5073160;28;20663;-58
2022/05/23 12:54:28;;;;;;;4.97;2.07;;;;;;;;;;5073073;28;20244;-60
2022/05/23 12:57:04;;;;;;;5.27;2.23;;;;;;;;;;5071586;28;20205;-59
2022/05/23 12:59:39;;;;;;;5.10;2.13;;;;;;;;;;5072647;28;20218;-59
2022/05/23 13:02:07;;;;;;;7.77;2.10;;;;;;;;;;5072680;28;20202;-59
2022/05/23 13:04:36;;;;;;;5.20;2.10;;;;;;;;;;5072427;28;20638;-58
2022/05/23 13:07:07;;;;;;;4.90;2.00;;;;;;;;;;5072761;28;20246;-58
2022/05/23 13:09:36;;;;;;;4.13;2.30;;;;;;;;;;5072526;28;20715;-58
2022/05/23 13:12:05;;;;;;;5.57;2.33;;;;;;;;;;5072488;28;20196;-58
2022/05/23 13:14:45;;;;;;;4.33;2.30;;;;;;;;;;5072140;28;20242;-58
2022/05/23 13:17:11;;;;;;;4.83;2.00;;;;;;;;;;5072332;28;20249;-57
2022/05/23 13:22:38;;;;;;;4.83;2.50;;;;;;;;;;5072200;28;20279;-59
2022/05/23 13:25:05;;;;;;;4.73;2.07;;;;;;;;;;5072292;28;20223;-58
2022/05/23 13:27:37;;;;;;;6.90;2.50;;;;;;;;;;5072132;28;20204;-58
2022/05/23 13:30:05;;;;;;;6.53;2.53;;;;;;;;;;5070192;28;20233;-58
2022/05/23 13:32:31;;;;;;;4.93;2.20;;;;;;;;;;5072119;28;20192;-58
2022/05/23 13:35:01;;;;;;;6.57;2.47;;;;;;;;;;5072028;28;20233;-60
2022/05/23 13:37:28;;;;;;;3.07;2.10;;;;;;;;;;5072288;28;20223;-58
2022/05/23 13:39:56;;;;;;;6.37;2.30;;;;;;;;;;5072180;28;20203;-58
2022/05/23 13:42:23;;;;;;;6.20;2.17;;;;;;;;;;5072152;28;20200;-59
2022/05/23 13:44:49;;;;;;;4.57;2.30;;;;;;;;;;5071882;28;20200;-59
2022/05/23 13:47:19;;;;;;;5.63;2.20;;;;;;;;;;5071985;28;20195;-59
2022/05/23 13:49:46;;;;;;;4.70;2.40;;;;;;;;;;5072031;28;20200;-58
2022/05/23 13:52:14;;;;;;;5.20;1.90;;;;;;;;;;5071704;28;20206;-59
2022/05/23 13:54:47;;;;;;;3.47;2.20;;;;;;;;;;5071762;28;20234;-58
2022/05/23 13:57:17;;;;;;;4.37;2.40;;;;;;;;;;5071905;28;20610;-58
2022/05/23 13:59:45;;;;;;;2.80;1.97;;;;;;;;;;5071808;28;20552;-57
2022/05/23 14:02:13;;;;;;;3.73;2.00;;;;;;;;;;5071514;28;20203;-58
2022/05/23 14:04:40;;;;;;;4.63;2.43;;;;;;;;;;5071787;28;20543;-58
2022/05/23 14:07:09;;;;;;;9.43;2.87;;;;;;;;;;5071776;28;20658;-58
2022/05/23 14:09:35;;;;;;;3.40;2.30;;;;;;;;;;5071721;28;20200;-59
2022/05/23 14:12:03;;;;;;;3.57;2.50;;;;;;;;;;5071725;28;20641;-59
2022/05/23 14:14:36;;;;;;;6.17;2.47;;;;;;;;;;5071757;28;20238;-58
2022/05/23 14:17:04;;;;;;;4.43;2.00;;;;;;;;;;5071528;28;20206;-57
2022/05/23 14:19:43;;;;;;;3.63;2.10;;;;;;;;;;5071925;28;20199;-58
2022/05/23 14:22:10;;;;;;;5.23;2.27;;;;;;;;;;5071028;28;20195;-58
2022/05/23 14:24:39;;;;;;;4.33;2.10;;;;;;;;;;5069659;28;20238;-58
2022/05/23 14:27:12;;;;;;;3.93;2.13;;;;;;;;;;5069640;28;20254;-59
2022/05/23 14:29:39;;;;;;;3.80;1.83;;;;;;;;;;5070116;28;20219;-58
2022/05/23 14:32:11;;;;;;;4.27;2.00;;;;;;;;;;5070108;28;20217;-58
2022/05/23 14:34:37;;;;;;;3.83;2.10;;;;;;;;;;5070156;28;20349;-59
2022/05/23 14:37:06;;;;;;;7.50;2.30;;;;;;;;;;5070119;28;20200;-59
2022/05/23 14:39:33;;;;;;;4.73;2.10;;;;;;;;;;5071230;28;20725;-58
2022/05/23 14:42:14;;;;;;;4.97;2.17;;;;;;;;;;5071261;28;20202;-57
2022/05/23 14:44:41;;;;;;;3.47;1.80;;;;;;;;;;5071009;28;20191;-57
2022/05/23 14:47:09;;;;;;;2.33;1.70;;;;;;;;;;5071028;28;20199;-57
2022/05/23 14:49:36;;;;;;;3.67;1.90;;;;;;;;;;5071204;28;20204;-57
2022/05/23 14:52:14;;;;;;;3.00;1.90;;;;;;;;;;5070944;28;20245;-58
2022/05/23 15:00:39;;;;;;;4.47;2.20;;;;;;;;;;5071061;28;20217;-57
2022/05/23 15:03:08;;;;;;;5.37;2.00;;;;;;;;;;5074699;28;20226;-58
2022/05/23 15:05:34;;;;;;;4.50;1.93;;;;;;;;;;5074628;28;20198;-58
2022/05/23 15:08:01;;;;;;;2.93;1.77;;;;;;;;;;5074724;28;20290;-58
2022/05/23 15:10:29;;;;;;;5.00;1.77;;;;;;;;;;5074630;28;20658;-58
2022/05/23 15:12:55;;;;;;;5.53;2.10;;;;;;;;;;5074565;28;20223;-58
2022/05/23 15:15:23;;;;;;;5.37;2.23;;;;;;;;;;5074068;28;20235;-57
2022/05/23 15:17:49;;;;;;;4.50;2.17;;;;;;;;;;5074576;28;20206;-58
2022/05/23 15:20:15;;;;;;;5.43;1.87;;;;;;;;;;5074527;28;20673;-58
2022/05/23 15:22:44;;;;;;;1.97;1.67;;;;;;;;;;5074366;28;20194;-57
2022/05/23 15:25:11;;;;;;;4.57;2.03;;;;;;;;;;5074217;28;20216;-57
2022/05/23 15:27:38;;;;;;;2.83;1.97;;;;;;;;;;5074461;28;20259;-58
2022/05/23 15:30:07;;;;;;;2.37;1.60;;;;;;;;;;5074108;28;20259;-57
2022/05/23 15:32:36;;;;;;;3.57;2.00;;;;;;;;;;5074354;28;20205;-57
2022/05/23 15:35:03;;;;;;;4.87;1.90;;;;;;;;;;5074041;28;20582;-60
2022/05/23 15:37:29;;;;;;;6.33;2.03;;;;;;;;;;5074378;28;20544;-59
2022/05/23 15:39:55;;;;;;;7.37;2.10;;;;;;;;;;5074119;28;20223;-59
2022/05/23 15:42:28;;;;;;;5.10;2.13;;;;;;;;;;5074066;28;20197;-59
2022/05/23 15:44:55;;;;;;;5.27;2.10;;;;;;;;;;5073961;28;20198;-58
2022/05/23 15:47:24;;;;;;;2.53;1.77;;;;;;;;;;5074051;28;20192;-59
2022/05/23 15:49:51;;;;;;;3.60;2.07;;;;;;;;;;5073896;28;20572;-58
2022/05/23 15:52:18;;;;;;;4.43;1.90;;;;;;;;;;5073834;28;20210;-59
2022/05/23 15:54:44;;;;;;;7.73;2.13;;;;;;;;;;5073837;28;20229;-59
2022/05/23 15:57:11;;;;;;;3.43;1.83;;;;;;;;;;5073657;28;20667;-59
2022/05/23 15:59:37;;;;;;;3.07;1.90;;;;;;;;;;5073614;28;20679;-58
2022/05/23 16:02:04;;;;;;;4.33;2.00;;;;;;;;;;5073569;28;20553;-59